Terminal Aerodrome Forecast
Issued by NWS Sterling, VA

Home | Current Version | Previous Version | Text Only | Print | Product List | Glossary On
Versions: 1 2 3 4 5 6 7 8 9 10 11 12 13 14 15 16 17 18 19 20
566
FTUS41 KLWX 281455 AAA
TAFBWI
TAF AMD
KBWI 281455Z 2815/2918 23005KT P6SM SCT250
     FM281900 16009KT P6SM SCT100
     FM290200 17004KT P6SM FEW250
     FM291200 VRB03KT 5SM -SHRA BKN050=

USA.gov is the U.S. government's official web portal to all federal, state and local government web resources and services.